createdAt,value
2023-03-06T00:01:47.473Z,987.39
2023-03-06T00:02:48.367Z,987.35
2023-03-06T00:03:48.336Z,987.36
2023-03-06T00:04:48.467Z,987.38
2023-03-06T00:05:48.227Z,987.31
2023-03-06T00:06:48.187Z,987.36
2023-03-06T00:07:48.048Z,987.33
2023-03-06T00:08:48.011Z,987.30
2023-03-06T00:09:47.958Z,987.32
2023-03-06T00:10:47.946Z,987.28
2023-03-06T00:11:47.815Z,987.23
2023-03-06T00:12:47.819Z,987.28
2023-03-06T00:13:47.692Z,987.31
2023-03-06T00:14:47.610Z,987.22
2023-03-06T00:15:47.568Z,987.22
2023-03-06T00:16:47.534Z,987.17
2023-03-06T00:17:47.449Z,987.19
2023-03-06T00:18:47.405Z,987.17
2023-03-06T00:19:47.345Z,987.19
2023-03-06T00:20:47.268Z,987.15
2023-03-06T00:21:47.201Z,987.16
2023-03-06T00:22:47.130Z,987.17
2023-03-06T00:23:47.049Z,987.15
2023-03-06T00:24:47.031Z,987.14
2023-03-06T00:25:46.939Z,987.15
2023-03-06T00:26:46.900Z,987.17
2023-03-06T00:27:46.790Z,987.13
2023-03-06T00:28:46.776Z,987.12
2023-03-06T00:29:46.687Z,987.09
2023-03-06T00:30:46.648Z,987.12
2023-03-06T00:31:46.610Z,987.05
2023-03-06T00:32:46.496Z,987.06
2023-03-06T00:33:46.460Z,987.07
2023-03-06T00:34:46.396Z,987.05
2023-03-06T00:35:46.333Z,987.04
2023-03-06T00:36:46.264Z,986.99
2023-03-06T00:37:46.259Z,986.98
2023-03-06T00:38:46.121Z,987.00
2023-03-06T00:39:46.053Z,986.98
2023-03-06T00:40:45.985Z,986.98
2023-03-06T00:41:47.047Z,986.95
2023-03-06T00:42:45.879Z,986.98
2023-03-06T00:43:45.805Z,986.95
2023-03-06T00:44:45.733Z,986.97
2023-03-06T00:45:45.687Z,986.93
2023-03-06T00:46:45.636Z,986.91
2023-03-06T00:47:45.550Z,986.92
2023-03-06T00:48:45.497Z,986.93
2023-03-06T00:49:45.417Z,986.92
2023-03-06T00:50:45.332Z,986.92
2023-03-06T00:51:45.318Z,986.88
2023-03-06T00:52:45.231Z,986.88
2023-03-06T00:53:45.198Z,986.88
2023-03-06T00:55:54.297Z,986.87
2023-03-06T00:56:55.261Z,986.79
2023-03-06T00:57:55.190Z,986.80
2023-03-06T00:58:55.134Z,986.81
2023-03-06T00:59:55.099Z,986.86
2023-03-06T01:00:55.041Z,986.86
2023-03-06T01:01:55.028Z,986.85
2023-03-06T01:02:54.878Z,986.88
2023-03-06T01:03:54.838Z,986.80
2023-03-06T01:04:54.748Z,986.82
2023-03-06T01:05:54.677Z,986.78
2023-03-06T01:06:54.644Z,986.76
2023-03-06T01:07:54.582Z,986.77
2023-03-06T01:08:54.493Z,986.75
2023-03-06T01:09:54.452Z,986.76
2023-03-06T01:10:54.332Z,986.72
2023-03-06T01:11:54.316Z,986.73
2023-03-06T01:12:54.229Z,986.73
2023-03-06T01:13:54.144Z,986.68
2023-03-06T01:14:54.140Z,986.74
2023-03-06T01:15:54.085Z,986.65
2023-03-06T01:16:53.957Z,986.63
2023-03-06T01:17:53.933Z,986.63
2023-03-06T01:18:53.871Z,986.58
2023-03-06T01:19:53.823Z,986.56
2023-03-06T01:20:53.722Z,986.55
2023-03-06T01:21:53.661Z,986.50
2023-03-06T01:22:53.599Z,986.51
2023-03-06T01:23:53.532Z,986.46
2023-03-06T01:24:53.514Z,986.49
2023-03-06T01:25:53.433Z,986.44
2023-03-06T01:26:53.368Z,986.46
2023-03-06T01:27:53.252Z,986.42
2023-03-06T01:28:53.214Z,986.41
2023-03-06T01:29:53.147Z,986.39
2023-03-06T01:32:02.521Z,986.38
2023-03-06T01:33:03.262Z,986.36
2023-03-06T01:34:03.200Z,986.41
2023-03-06T01:35:03.114Z,986.36
2023-03-06T01:36:03.021Z,986.38
2023-03-06T01:37:03.029Z,986.37
2023-03-06T01:38:02.922Z,986.38
2023-03-06T01:39:02.870Z,986.34
2023-03-06T01:40:02.799Z,986.33
2023-03-06T01:41:02.712Z,986.28
2023-03-06T01:42:02.645Z,986.27
2023-03-06T01:43:02.673Z,986.21
2023-03-06T01:44:02.574Z,986.21
2023-03-06T01:45:02.480Z,986.18
2023-03-06T01:46:02.516Z,986.21
2023-03-06T01:47:02.411Z,986.25
2023-03-06T01:48:02.316Z,986.21
2023-03-06T01:49:23.240Z,986.17
2023-03-06T01:50:02.165Z,986.18
2023-03-06T01:51:02.101Z,986.15
2023-03-06T01:52:02.044Z,986.17
2023-03-06T01:53:01.977Z,986.19
2023-03-06T01:54:01.936Z,986.15
2023-03-06T01:55:02.119Z,986.11
2023-03-06T01:56:01.783Z,986.12
2023-03-06T01:57:01.748Z,986.09
2023-03-06T01:58:01.656Z,986.11
2023-03-06T01:59:01.589Z,986.10
2023-03-06T02:00:01.524Z,986.12
2023-03-06T02:01:01.498Z,986.09
2023-03-06T02:02:01.455Z,986.09
2023-03-06T02:03:01.338Z,986.11
2023-03-06T02:04:01.269Z,986.09
2023-03-06T02:05:01.213Z,986.09
2023-03-06T02:06:01.143Z,986.06
2023-03-06T02:08:40.085Z,986.06
2023-03-06T02:09:41.059Z,986.04
2023-03-06T02:10:41.042Z,986.06
2023-03-06T02:11:40.937Z,986.05
2023-03-06T02:12:40.857Z,986.04
2023-03-06T02:13:40.817Z,986.08
2023-03-06T02:14:40.711Z,986.02
2023-03-06T02:15:40.646Z,986.03
2023-03-06T02:16:40.652Z,986.02
2023-03-06T02:17:40.544Z,986.00
2023-03-06T02:18:40.453Z,985.98
2023-03-06T02:19:40.402Z,985.96
2023-03-06T02:20:40.351Z,985.92
2023-03-06T02:21:40.296Z,985.96
2023-03-06T02:22:40.227Z,985.94
2023-03-06T02:23:40.188Z,985.95
2023-03-06T02:24:40.094Z,985.91
2023-03-06T02:25:40.094Z,985.93
2023-03-06T02:26:40.007Z,985.90
2023-03-06T02:27:39.932Z,985.91
2023-03-06T02:28:39.855Z,985.88
2023-03-06T02:29:39.807Z,985.89
2023-03-06T02:30:39.752Z,985.93
2023-03-06T02:31:39.659Z,985.93
2023-03-06T02:32:39.629Z,985.93
2023-03-06T02:33:39.538Z,985.87
2023-03-06T02:34:39.500Z,985.83
2023-03-06T02:35:39.425Z,985.85
2023-03-06T02:36:39.311Z,985.82
2023-03-06T02:37:39.268Z,985.78
2023-03-06T02:38:39.203Z,985.77
2023-03-06T02:39:39.174Z,985.73
2023-03-06T02:40:39.104Z,985.72
2023-03-06T02:41:39.046Z,985.68
2023-03-06T02:42:38.961Z,985.65
2023-03-06T02:43:59.846Z,985.64
2023-03-06T02:44:38.829Z,985.62
2023-03-06T02:45:38.765Z,985.60
2023-03-06T02:46:38.669Z,985.61
2023-03-06T02:47:38.659Z,985.55
2023-03-06T02:48:38.544Z,985.57
2023-03-06T02:49:38.513Z,985.55
2023-03-06T02:50:38.449Z,985.61
2023-03-06T02:51:38.352Z,985.52
2023-03-06T02:52:38.338Z,985.51
2023-03-06T02:53:38.253Z,985.55
2023-03-06T02:54:38.189Z,985.50
2023-03-06T02:55:59.113Z,985.48
2023-03-06T02:56:38.076Z,985.49
2023-03-06T02:57:37.977Z,985.50
2023-03-06T02:58:37.970Z,985.50
2023-03-06T02:59:37.892Z,985.49
2023-03-06T03:00:38.444Z,985.47
2023-03-06T03:01:37.762Z,985.44
2023-03-06T03:02:37.675Z,985.49
2023-03-06T03:03:37.582Z,985.50
2023-03-06T03:04:37.621Z,985.45
2023-03-06T03:05:37.481Z,985.41
2023-03-06T03:06:37.397Z,985.44
2023-03-06T03:07:37.418Z,985.39
2023-03-06T03:08:37.295Z,985.42
2023-03-06T03:09:37.241Z,985.40
2023-03-06T03:10:58.122Z,985.38
2023-03-06T03:11:37.106Z,985.41
2023-03-06T03:12:37.014Z,985.39
2023-03-06T03:13:36.986Z,985.40
2023-03-06T03:14:36.953Z,985.39
2023-03-06T03:15:36.895Z,985.38
2023-03-06T03:16:39.073Z,985.33
2023-03-06T03:17:36.723Z,985.32
2023-03-06T03:18:36.657Z,985.31
2023-03-06T03:19:57.594Z,985.32
2023-03-06T03:20:36.556Z,985.33
2023-03-06T03:21:36.441Z,985.30
2023-03-06T03:22:36.401Z,985.28
2023-03-06T03:23:36.367Z,985.30
2023-03-06T03:24:36.319Z,985.30
2023-03-06T03:25:36.227Z,985.26
2023-03-06T03:26:36.177Z,985.30
2023-03-06T03:27:36.101Z,985.32
2023-03-06T03:28:36.050Z,985.32
2023-03-06T03:29:35.933Z,985.29
2023-03-06T03:30:35.907Z,985.25
2023-03-06T03:31:35.860Z,985.23
2023-03-06T03:32:35.802Z,985.21
2023-03-06T03:33:35.678Z,985.20
2023-03-06T03:34:35.669Z,985.21
2023-03-06T03:35:35.564Z,985.23
2023-03-06T03:36:35.497Z,985.25
2023-03-06T03:37:35.439Z,985.24
2023-03-06T03:38:35.396Z,985.18
2023-03-06T03:39:35.351Z,985.16
2023-03-06T03:40:35.262Z,985.16
2023-03-06T03:41:35.178Z,985.14
2023-03-06T03:42:35.132Z,985.17
2023-03-06T03:43:35.092Z,985.17
2023-03-06T03:44:35.004Z,985.16
2023-03-06T03:45:34.969Z,985.16
2023-03-06T03:46:34.968Z,985.16
2023-03-06T03:47:34.846Z,985.12
2023-03-06T03:48:34.762Z,985.13
2023-03-06T03:49:34.736Z,985.13
2023-03-06T03:50:34.654Z,985.10
2023-03-06T03:51:34.560Z,985.11
2023-03-06T03:52:34.471Z,985.09
2023-03-06T03:53:34.439Z,985.05
2023-03-06T03:54:34.408Z,985.07
2023-03-06T03:55:55.293Z,985.05
2023-03-06T03:56:34.237Z,985.01
2023-03-06T03:57:34.178Z,984.98
2023-03-06T03:58:34.111Z,985.01
2023-03-06T03:59:34.028Z,984.96
2023-03-06T04:00:33.962Z,984.94
2023-03-06T04:01:34.289Z,984.96
2023-03-06T04:02:33.858Z,984.91
2023-03-06T04:03:33.797Z,984.91
2023-03-06T04:04:33.798Z,984.90
2023-03-06T04:05:33.649Z,984.93
2023-03-06T04:06:33.647Z,984.88
2023-03-06T04:07:33.523Z,984.86
2023-03-06T04:08:33.485Z,984.85
2023-03-06T04:09:33.382Z,984.86
2023-03-06T04:10:33.347Z,984.83
2023-03-06T04:11:33.321Z,984.84
2023-03-06T04:12:33.194Z,984.83
2023-03-06T04:13:33.167Z,984.82
2023-03-06T04:14:33.092Z,984.80
2023-03-06T04:15:33.062Z,984.82
2023-03-06T04:16:32.993Z,984.80
2023-03-06T04:17:32.909Z,984.78
2023-03-06T04:18:32.837Z,984.81
2023-03-06T04:19:32.768Z,984.80
2023-03-06T04:20:32.707Z,984.81
2023-03-06T04:21:32.643Z,984.79
2023-03-06T04:22:32.609Z,984.73
2023-03-06T04:23:32.521Z,984.74
2023-03-06T04:24:32.457Z,984.71
2023-03-06T04:25:32.437Z,984.76
2023-03-06T04:26:32.330Z,984.72
2023-03-06T04:27:32.297Z,984.70
2023-03-06T04:28:32.224Z,984.69
2023-03-06T04:29:32.189Z,984.69
2023-03-06T04:30:32.100Z,984.72
2023-03-06T04:34:10.576Z,984.67
2023-03-06T04:35:11.480Z,984.65
2023-03-06T04:36:11.406Z,984.67
2023-03-06T04:37:11.398Z,984.64
2023-03-06T04:38:11.305Z,984.62
2023-03-06T04:39:11.267Z,984.63
2023-03-06T04:40:11.228Z,984.63
2023-03-06T04:41:11.104Z,984.61
2023-03-06T04:42:11.021Z,984.64
2023-03-06T04:43:10.986Z,984.59
2023-03-06T04:44:10.887Z,984.56
2023-03-06T04:45:10.881Z,984.57
2023-03-06T04:46:10.772Z,984.58
2023-03-06T04:47:10.704Z,984.57
2023-03-06T04:48:10.666Z,984.57
2023-03-06T04:50:49.602Z,984.53
2023-03-06T04:51:50.537Z,984.53
2023-03-06T04:52:50.505Z,984.50
2023-03-06T04:53:50.385Z,984.51
2023-03-06T04:54:50.329Z,984.56
2023-03-06T04:55:50.263Z,984.57
2023-03-06T04:56:50.194Z,984.52
2023-03-06T04:57:50.133Z,984.51
2023-03-06T04:58:50.075Z,984.52
2023-03-06T04:59:50.037Z,984.48
2023-03-06T05:00:49.984Z,984.51
2023-03-06T05:01:49.960Z,984.45
2023-03-06T05:02:49.817Z,984.47
2023-03-06T05:03:49.763Z,984.49
2023-03-06T05:04:49.722Z,984.42
2023-03-06T05:05:49.636Z,984.46
2023-03-06T05:06:49.608Z,984.43
2023-03-06T05:07:49.551Z,984.44
2023-03-06T05:08:49.465Z,984.46
2023-03-06T05:09:49.430Z,984.45
2023-03-06T05:10:49.321Z,984.45
2023-03-06T05:11:49.251Z,984.43
2023-03-06T05:12:49.227Z,984.42
2023-03-06T05:13:49.142Z,984.40
2023-03-06T05:14:49.108Z,984.36
2023-03-06T05:15:48.994Z,984.37
2023-03-06T05:16:49.151Z,984.32
2023-03-06T05:17:48.937Z,984.35
2023-03-06T05:18:50.579Z,984.33
2023-03-06T05:19:48.779Z,984.31
2023-03-06T05:20:48.728Z,984.31
2023-03-06T05:21:48.612Z,984.36
2023-03-06T05:22:48.586Z,984.34
2023-03-06T05:23:48.489Z,984.30
2023-03-06T05:25:09.403Z,984.34
2023-03-06T05:25:48.400Z,984.32
2023-03-06T05:26:48.316Z,984.33
2023-03-06T05:27:48.261Z,984.31
2023-03-06T05:28:48.224Z,984.30
2023-03-06T05:29:48.173Z,984.33
2023-03-06T05:30:48.068Z,984.34
2023-03-06T05:31:48.065Z,984.32
2023-03-06T05:32:48.005Z,984.32
2023-03-06T05:33:47.865Z,984.32
2023-03-06T05:34:47.806Z,984.29
2023-03-06T05:35:47.866Z,984.32
2023-03-06T05:36:47.751Z,984.37
2023-03-06T05:37:47.606Z,984.33
2023-03-06T05:38:47.569Z,984.39
2023-03-06T05:39:47.440Z,984.36
2023-03-06T05:40:47.418Z,984.36
2023-03-06T05:41:47.327Z,984.35
2023-03-06T05:44:26.240Z,984.34
2023-03-06T05:45:27.148Z,984.31
2023-03-06T05:46:27.086Z,984.30
2023-03-06T05:47:27.010Z,984.25
2023-03-06T05:48:26.994Z,984.25
2023-03-06T05:49:26.914Z,984.22
2023-03-06T05:50:26.849Z,984.21
2023-03-06T05:51:26.811Z,984.23
2023-03-06T05:52:26.745Z,984.20
2023-03-06T05:53:26.645Z,984.22
2023-03-06T05:54:26.622Z,984.20
2023-03-06T05:55:26.528Z,984.16
2023-03-06T05:56:26.438Z,984.19
2023-03-06T05:57:26.381Z,984.20
2023-03-06T05:58:26.341Z,984.16
2023-03-06T05:59:26.274Z,984.18
2023-03-06T06:00:26.244Z,984.20
2023-03-06T06:01:26.147Z,984.17
2023-03-06T06:02:26.130Z,984.21
2023-03-06T06:03:26.113Z,984.18
2023-03-06T06:04:25.963Z,984.18
2023-03-06T06:05:25.877Z,984.17
2023-03-06T06:06:25.875Z,984.13
2023-03-06T06:07:25.796Z,984.16
2023-03-06T06:08:25.735Z,984.11
2023-03-06T06:09:25.640Z,984.14
2023-03-06T06:10:25.578Z,984.15
2023-03-06T06:11:25.506Z,984.17
2023-03-06T06:12:25.476Z,984.15
2023-03-06T06:13:25.419Z,984.11
2023-03-06T06:14:25.321Z,984.11
2023-03-06T06:15:25.283Z,984.10
2023-03-06T06:16:25.220Z,984.15
2023-03-06T06:17:25.149Z,984.08
2023-03-06T06:18:25.050Z,984.12
2023-03-06T06:19:25.000Z,984.09
2023-03-06T06:20:24.961Z,984.12
2023-03-06T06:21:24.872Z,984.12
2023-03-06T06:22:24.793Z,984.15
2023-03-06T06:23:24.732Z,984.12
2023-03-06T06:24:24.698Z,984.13
2023-03-06T06:25:24.622Z,984.09
2023-03-06T06:26:24.529Z,984.09
2023-03-06T06:27:24.519Z,984.08
2023-03-06T06:28:24.405Z,984.06
2023-03-06T06:29:24.401Z,984.06
2023-03-06T06:30:24.326Z,984.10
2023-03-06T06:31:24.333Z,984.13
2023-03-06T06:32:24.193Z,984.12
2023-03-06T06:33:24.154Z,984.08
2023-03-06T06:34:24.064Z,984.12
2023-03-06T06:35:24.029Z,984.08
2023-03-06T06:36:44.988Z,984.04
2023-03-06T06:37:23.863Z,984.07
2023-03-06T06:38:23.787Z,984.12
2023-03-06T06:39:23.740Z,984.12
2023-03-06T06:40:23.840Z,984.14
2023-03-06T06:44:02.483Z,984.08
2023-03-06T06:45:03.480Z,984.07
2023-03-06T06:46:28.315Z,984.03
2023-03-06T06:47:23.058Z,984.08
2023-03-06T06:48:03.264Z,984.05
2023-03-06T06:49:03.117Z,984.03
2023-03-06T06:50:03.108Z,984.03
2023-03-06T06:51:03.069Z,984.03
2023-03-06T06:52:04.971Z,984.03
2023-03-06T06:53:03.940Z,984.01
2023-03-06T06:55:17.174Z,984.01
2023-03-06T06:56:16.209Z,984.04
2023-03-06T06:57:13.394Z,984.05
2023-03-06T06:58:13.442Z,984.10
2023-03-06T06:59:17.042Z,984.08
2023-03-06T07:00:13.198Z,984.05
2023-03-06T07:01:13.167Z,984.01
2023-03-06T07:02:13.068Z,984.03
2023-03-06T07:03:12.967Z,984.03
2023-03-06T07:04:13.150Z,984.02
2023-03-06T07:05:12.837Z,984.02
2023-03-06T07:06:12.837Z,984.00
2023-03-06T07:07:12.707Z,984.03
2023-03-06T07:08:12.664Z,983.99
2023-03-06T07:09:12.597Z,984.01
2023-03-06T07:10:12.584Z,984.08
2023-03-06T07:11:12.495Z,984.05
2023-03-06T07:12:12.440Z,984.07
2023-03-06T07:13:12.381Z,984.06
2023-03-06T07:14:12.323Z,984.07
2023-03-06T07:15:12.227Z,984.09
2023-03-06T07:16:12.189Z,984.12
2023-03-06T07:17:12.109Z,984.12
2023-03-06T07:18:12.104Z,984.09
2023-03-06T07:19:11.989Z,984.13
2023-03-06T07:20:11.945Z,984.09
2023-03-06T07:21:11.854Z,984.06
2023-03-06T07:22:11.798Z,984.07
2023-03-06T07:23:11.750Z,984.11
2023-03-06T07:24:11.659Z,984.09
2023-03-06T07:25:11.596Z,984.07
2023-03-06T07:26:11.546Z,984.08
2023-03-06T07:27:11.512Z,984.06
2023-03-06T07:28:11.415Z,984.11
2023-03-06T07:29:11.343Z,984.08
2023-03-06T07:30:11.277Z,984.07
2023-03-06T07:31:11.255Z,984.03
2023-03-06T07:32:11.215Z,984.07
2023-03-06T07:33:11.092Z,984.06
2023-03-06T07:34:11.006Z,984.09
2023-03-06T07:35:19.678Z,984.10
2023-03-06T07:36:12.829Z,984.10
2023-03-06T07:37:10.851Z,984.11
2023-03-06T07:38:10.755Z,984.13
2023-03-06T07:39:10.742Z,984.12
2023-03-06T07:40:10.653Z,984.09
2023-03-06T07:41:10.622Z,984.12
2023-03-06T07:42:10.569Z,984.11
2023-03-06T07:43:19.001Z,984.15
2023-03-06T07:44:10.444Z,984.10
2023-03-06T07:45:10.368Z,984.13
2023-03-06T07:46:10.337Z,984.12
2023-03-06T07:47:10.228Z,984.15
2023-03-06T07:48:10.175Z,984.16
2023-03-06T07:49:10.071Z,984.15
2023-03-06T07:50:10.008Z,984.15
2023-03-06T07:51:10.002Z,984.12
2023-03-06T07:52:09.873Z,984.14
2023-03-06T07:53:10.862Z,984.14
2023-03-06T07:54:09.817Z,984.12
2023-03-06T07:55:09.712Z,984.12
2023-03-06T07:56:09.677Z,984.14
2023-03-06T07:57:09.615Z,984.12
2023-03-06T07:58:09.527Z,984.11
2023-03-06T07:59:09.468Z,984.08
2023-03-06T08:00:09.411Z,984.11
2023-03-06T08:01:09.338Z,984.12
2023-03-06T08:02:09.254Z,984.13
2023-03-06T08:03:09.214Z,984.12
2023-03-06T08:04:09.218Z,984.16
2023-03-06T08:05:09.094Z,984.13
2023-03-06T08:06:09.032Z,984.10
2023-03-06T08:07:08.969Z,984.13
2023-03-06T08:08:08.902Z,984.14
2023-03-06T08:09:08.834Z,984.14
2023-03-06T08:10:08.766Z,984.13
2023-03-06T08:11:08.708Z,984.15
2023-03-06T08:12:08.695Z,984.16
2023-03-06T08:13:08.578Z,984.13
2023-03-06T08:14:08.536Z,984.13
2023-03-06T08:15:08.493Z,984.13
2023-03-06T08:16:08.428Z,984.10
2023-03-06T08:17:08.328Z,984.15
2023-03-06T08:18:08.296Z,984.20
2023-03-06T08:19:08.201Z,984.17
2023-03-06T08:20:08.172Z,984.17
2023-03-06T08:21:08.080Z,984.15
2023-03-06T08:22:07.996Z,984.15
2023-03-06T08:23:09.981Z,984.16
2023-03-06T08:24:31.785Z,984.18
2023-03-06T08:25:08.855Z,984.19
2023-03-06T08:26:07.735Z,984.18
2023-03-06T08:27:07.749Z,984.21
2023-03-06T08:28:07.640Z,984.23
2023-03-06T08:29:07.576Z,984.24
2023-03-06T08:30:07.554Z,984.21
2023-03-06T08:31:07.450Z,984.20
2023-03-06T08:32:07.514Z,984.22
2023-03-06T08:33:07.318Z,984.19
2023-03-06T08:34:07.300Z,984.17
2023-03-06T08:35:07.281Z,984.16
2023-03-06T08:36:07.129Z,984.20
2023-03-06T08:37:07.117Z,984.16
2023-03-06T08:38:07.042Z,984.20
2023-03-06T08:39:06.943Z,984.18
2023-03-06T08:40:06.879Z,984.14
2023-03-06T08:41:06.796Z,984.15
2023-03-06T08:42:06.796Z,984.13
2023-03-06T08:43:06.719Z,984.18
2023-03-06T08:44:06.656Z,984.17
2023-03-06T08:45:06.611Z,984.14
2023-03-06T08:46:06.508Z,984.13
2023-03-06T08:47:06.428Z,984.15
2023-03-06T08:48:06.408Z,984.17
2023-03-06T08:49:06.297Z,984.18
2023-03-06T08:50:06.225Z,984.15
2023-03-06T08:51:06.191Z,984.13
2023-03-06T08:52:06.101Z,984.17
2023-03-06T08:53:06.058Z,984.13
2023-03-06T08:54:06.246Z,984.18
2023-03-06T08:55:05.977Z,984.18
2023-03-06T08:56:05.889Z,984.15
2023-03-06T08:57:05.809Z,984.15
2023-03-06T08:58:05.740Z,984.18
2023-03-06T08:59:05.731Z,984.10
2023-03-06T09:00:05.667Z,984.08
2023-03-06T09:01:05.715Z,984.09
2023-03-06T09:02:05.628Z,984.07
2023-03-06T09:03:05.434Z,984.12
2023-03-06T09:04:05.368Z,984.05
2023-03-06T09:05:05.290Z,984.12
2023-03-06T09:06:05.308Z,984.10
2023-03-06T09:07:05.161Z,984.15
2023-03-06T09:08:05.087Z,984.16
2023-03-06T09:09:05.056Z,984.18
2023-03-06T09:10:04.995Z,984.20
2023-03-06T09:11:04.987Z,984.19
2023-03-06T09:12:04.921Z,984.21
2023-03-06T09:13:04.769Z,984.18
2023-03-06T09:14:04.766Z,984.18
2023-03-06T09:15:04.674Z,984.21
2023-03-06T09:16:04.606Z,984.17
2023-03-06T09:17:04.574Z,984.19
2023-03-06T09:18:04.659Z,984.19
2023-03-06T09:19:04.434Z,984.18
2023-03-06T09:20:04.355Z,984.20
2023-03-06T09:21:04.323Z,984.18
2023-03-06T09:22:04.219Z,984.20
2023-03-06T09:23:04.203Z,984.22
2023-03-06T09:24:04.100Z,984.21
2023-03-06T09:25:04.051Z,984.24
2023-03-06T09:26:03.967Z,984.24
2023-03-06T09:27:03.897Z,984.21
2023-03-06T09:28:11.434Z,984.22
2023-03-06T09:29:03.832Z,984.20
2023-03-06T09:30:03.744Z,984.27
2023-03-06T09:31:03.706Z,984.27
2023-03-06T09:32:03.614Z,984.29
2023-03-06T09:33:03.549Z,984.25
2023-03-06T09:34:03.483Z,984.31
2023-03-06T09:35:03.451Z,984.33
2023-03-06T09:36:03.362Z,984.34
2023-03-06T09:37:03.332Z,984.33
2023-03-06T09:38:03.236Z,984.37
2023-03-06T09:39:03.192Z,984.39
2023-03-06T09:40:03.114Z,984.41
2023-03-06T09:41:03.044Z,984.40
2023-03-06T09:42:03.003Z,984.35
2023-03-06T09:43:02.946Z,984.36
2023-03-06T09:44:02.833Z,984.34
2023-03-06T09:45:02.832Z,984.29
2023-03-06T09:46:02.785Z,984.26
2023-03-06T09:47:02.637Z,984.24
2023-03-06T09:48:02.585Z,984.18
2023-03-06T09:49:02.527Z,984.16
2023-03-06T09:50:02.506Z,984.15
2023-03-06T09:51:02.419Z,984.12
2023-03-06T09:52:02.343Z,984.13
2023-03-06T09:53:02.318Z,984.14
2023-03-06T09:54:23.242Z,984.14
2023-03-06T09:55:02.166Z,984.11
2023-03-06T09:56:02.066Z,984.08
2023-03-06T09:57:02.059Z,984.13
2023-03-06T09:58:01.943Z,984.11
2023-03-06T09:59:01.902Z,984.16
2023-03-06T10:00:04.310Z,984.13
2023-03-06T10:01:01.782Z,984.17
2023-03-06T10:02:01.769Z,984.18
2023-03-06T10:03:01.802Z,984.20
2023-03-06T10:04:01.601Z,984.20
2023-03-06T10:05:01.575Z,984.13
2023-03-06T10:06:02.707Z,984.15
2023-03-06T10:07:01.411Z,984.22
2023-03-06T10:08:01.343Z,984.22
2023-03-06T10:09:01.268Z,984.26
2023-03-06T10:10:01.207Z,984.19
2023-03-06T10:11:01.158Z,984.18
2023-03-06T10:12:24.581Z,984.22
2023-03-06T10:13:01.036Z,984.17
2023-03-06T10:14:02.004Z,984.14
2023-03-06T10:15:01.164Z,984.15
2023-03-06T10:16:01.310Z,984.20
2023-03-06T10:17:00.769Z,984.14
2023-03-06T10:18:01.099Z,984.10
2023-03-06T10:19:00.648Z,984.09
2023-03-06T10:20:00.623Z,984.10
2023-03-06T10:21:13.404Z,984.06
2023-03-06T10:22:00.448Z,984.06
2023-03-06T10:23:03.862Z,984.04
2023-03-06T10:24:00.343Z,984.00
2023-03-06T10:25:00.330Z,983.97
2023-03-06T10:26:00.298Z,983.96
2023-03-06T10:27:01.169Z,983.95
2023-03-06T10:28:00.128Z,983.99
2023-03-06T10:29:00.017Z,983.99
2023-03-06T10:30:03.102Z,983.95
2023-03-06T10:30:59.981Z,983.92
2023-03-06T10:31:59.836Z,983.96
2023-03-06T10:32:59.857Z,983.96
2023-03-06T10:33:59.724Z,983.96
2023-03-06T10:34:59.659Z,983.96
2023-03-06T10:35:59.675Z,983.91
2023-03-06T10:37:00.807Z,983.95
2023-03-06T10:37:59.449Z,983.94
2023-03-06T10:38:59.361Z,983.95
2023-03-06T10:39:59.320Z,983.96
2023-03-06T10:41:00.297Z,983.96
2023-03-06T10:41:59.444Z,983.93
2023-03-06T10:43:11.152Z,983.91
2023-03-06T10:43:59.599Z,983.94
2023-03-06T10:44:59.020Z,983.94
2023-03-06T10:45:59.076Z,983.98
2023-03-06T10:46:59.518Z,983.97
2023-03-06T10:47:58.845Z,983.95
2023-03-06T10:48:58.759Z,983.98
2023-03-06T10:49:58.704Z,983.98
2023-03-06T10:50:59.713Z,983.95
2023-03-06T10:51:58.602Z,983.94
2023-03-06T10:52:58.475Z,983.98
2023-03-06T10:53:58.440Z,984.02
2023-03-06T10:54:58.398Z,984.02
2023-03-06T10:55:58.622Z,984.03
2023-03-06T10:56:59.124Z,984.00
2023-03-06T10:57:58.256Z,983.99
2023-03-06T10:58:58.181Z,984.01
2023-03-06T10:59:58.089Z,984.03
2023-03-06T11:00:57.982Z,984.01
2023-03-06T11:01:57.984Z,984.00
2023-03-06T11:02:57.843Z,984.04
2023-03-06T11:03:57.803Z,984.07
2023-03-06T11:04:57.746Z,984.07
2023-03-06T11:05:57.705Z,984.04
2023-03-06T11:06:57.622Z,984.05
2023-03-06T11:07:57.587Z,984.03
2023-03-06T11:08:57.485Z,984.09
2023-03-06T11:09:57.422Z,984.09
2023-03-06T11:10:57.421Z,984.07
2023-03-06T11:11:57.336Z,984.06
2023-03-06T11:12:57.419Z,984.06
2023-03-06T11:13:57.207Z,984.08
2023-03-06T11:14:57.108Z,984.04
2023-03-06T11:15:57.161Z,984.07
2023-03-06T11:16:57.032Z,984.05
2023-03-06T11:17:56.994Z,983.95
2023-03-06T11:18:56.883Z,983.97
2023-03-06T11:20:03.075Z,983.92
2023-03-06T11:20:57.057Z,983.93
2023-03-06T11:21:57.359Z,983.92
2023-03-06T11:22:59.645Z,983.90
2023-03-06T11:23:56.577Z,983.85
2023-03-06T11:24:56.475Z,983.90
2023-03-06T11:25:56.430Z,983.87
2023-03-06T11:26:56.915Z,983.87
2023-03-06T11:27:56.324Z,983.81
2023-03-06T11:28:56.335Z,983.86
2023-03-06T11:29:56.284Z,983.89
2023-03-06T11:30:56.092Z,983.86
2023-03-06T11:31:57.018Z,983.86
2023-03-06T11:32:56.005Z,983.84
2023-03-06T11:33:55.907Z,983.83
2023-03-06T11:34:56.406Z,983.84
2023-03-06T11:35:55.794Z,983.79
2023-03-06T11:36:55.715Z,983.82
2023-03-06T11:37:55.657Z,983.89
2023-03-06T11:38:55.616Z,983.82
2023-03-06T11:39:55.548Z,983.83
2023-03-06T11:40:56.042Z,983.84
2023-03-06T11:41:55.415Z,983.79
2023-03-06T11:42:56.252Z,983.84
2023-03-06T11:43:55.297Z,983.83
2023-03-06T11:44:55.268Z,983.78
2023-03-06T11:45:55.157Z,983.81
2023-03-06T11:46:55.109Z,983.81
2023-03-06T11:47:55.034Z,983.85
2023-03-06T11:48:55.056Z,983.80
2023-03-06T11:49:54.915Z,983.81
2023-03-06T11:50:54.899Z,983.83
2023-03-06T11:51:54.821Z,983.84
2023-03-06T11:52:54.701Z,983.82
2023-03-06T11:53:54.654Z,983.82
2023-03-06T11:54:54.571Z,983.79
2023-03-06T11:55:54.515Z,983.80
2023-03-06T11:56:54.490Z,983.82
2023-03-06T11:57:54.410Z,983.83
2023-03-06T11:58:54.329Z,983.78
2023-03-06T12:00:15.249Z,983.79
2023-03-06T12:00:54.209Z,983.77
2023-03-06T12:01:54.157Z,983.78
2023-03-06T12:02:54.073Z,983.73
2023-03-06T12:03:57.616Z,983.76
2023-03-06T12:04:53.991Z,983.79
2023-03-06T12:05:53.918Z,983.76
2023-03-06T12:06:56.788Z,983.79
2023-03-06T12:07:56.241Z,983.75
2023-03-06T12:08:56.428Z,983.78
2023-03-06T12:09:54.029Z,983.79
2023-03-06T12:10:55.558Z,983.76
2023-03-06T12:11:55.914Z,983.78
2023-03-06T12:12:59.942Z,983.83
2023-03-06T12:13:54.258Z,983.79
2023-03-06T12:14:54.201Z,983.75
2023-03-06T12:15:53.865Z,983.74
2023-03-06T12:17:02.440Z,983.77
2023-03-06T12:17:54.641Z,983.74
2023-03-06T12:18:53.063Z,983.75
2023-03-06T12:19:53.028Z,983.78
2023-03-06T12:20:52.911Z,983.79
2023-03-06T12:21:52.877Z,983.75
2023-03-06T12:23:02.540Z,983.76
2023-03-06T12:23:52.739Z,983.77
2023-03-06T12:24:54.445Z,983.76
2023-03-06T12:25:52.668Z,983.80
2023-03-06T12:26:52.589Z,983.76
2023-03-06T12:27:52.472Z,983.82
2023-03-06T12:28:52.435Z,983.85
2023-03-06T12:29:52.407Z,983.86
2023-03-06T12:30:52.303Z,983.83
2023-03-06T12:31:52.276Z,983.87
2023-03-06T12:32:52.232Z,983.82
2023-03-06T12:33:52.114Z,983.87
2023-03-06T12:34:52.023Z,983.91
2023-03-06T12:37:01.252Z,983.85
2023-03-06T12:38:02.105Z,983.85
2023-03-06T12:39:02.065Z,983.84
2023-03-06T12:40:01.964Z,983.82
2023-03-06T12:41:01.917Z,983.81
2023-03-06T12:42:02.493Z,983.83
2023-03-06T12:43:01.766Z,983.86
2023-03-06T12:44:01.754Z,983.83